createdAt,value
2019-05-22T00:02:35.460Z,12.20
2019-05-22T00:05:17.499Z,12.20
2019-05-22T00:07:48.126Z,12.20
2019-05-22T00:10:19.685Z,12.20
2019-05-22T00:12:49.363Z,12.20
2019-05-22T00:15:19.095Z,12.20
2019-05-22T00:17:49.434Z,12.10
2019-05-22T00:20:20.175Z,12.10
2019-05-22T00:22:51.122Z,12.20
2019-05-22T00:25:20.883Z,12.10
2019-05-22T00:27:52.317Z,12.10
2019-05-22T00:30:22.703Z,12.10
2019-05-22T00:32:51.755Z,12.10
2019-05-22T00:35:22.683Z,12.10
2019-05-22T00:37:51.784Z,12.10
2019-05-22T00:40:22.363Z,12.10
2019-05-22T00:43:03.267Z,12.10
2019-05-22T00:45:24.684Z,12.10
2019-05-22T00:47:55.050Z,12.10
2019-05-22T00:50:29.117Z,12.10
2019-05-22T00:53:01.370Z,12.10
2019-05-22T00:55:48.156Z,12.10
2019-05-22T00:58:19.791Z,12.10
2019-05-22T01:00:50.127Z,12.10
2019-05-22T01:03:22.498Z,12.10
2019-05-22T01:05:51.866Z,12.00
2019-05-22T01:08:21.684Z,12.00
2019-05-22T01:10:54.773Z,12.00
2019-05-22T01:13:25.508Z,12.10
2019-05-22T01:15:55.170Z,12.10
2019-05-22T01:18:25.638Z,12.00
2019-05-22T01:20:57.841Z,12.10
2019-05-22T01:23:29.454Z,12.00
2019-05-22T01:26:00.122Z,12.00
2019-05-22T01:28:30.349Z,12.00
2019-05-22T01:31:06.938Z,12.00
2019-05-22T01:33:40.780Z,12.00
2019-05-22T01:36:17.342Z,12.00
2019-05-22T01:38:46.036Z,12.00
2019-05-22T01:41:18.674Z,12.00
2019-05-22T01:43:50.334Z,12.00
2019-05-22T01:46:21.091Z,12.00
2019-05-22T01:48:53.915Z,12.00
2019-05-22T01:51:22.643Z,12.00
2019-05-22T01:53:51.870Z,12.00
2019-05-22T01:56:21.163Z,12.00
2019-05-22T01:58:50.709Z,12.00
2019-05-22T02:01:21.745Z,12.00
2019-05-22T02:03:52.122Z,12.00
2019-05-22T02:06:23.192Z,12.00
2019-05-22T02:08:56.479Z,12.00
2019-05-22T02:11:27.350Z,12.00
2019-05-22T02:14:12.548Z,12.00
2019-05-22T02:16:56.297Z,12.00
2019-05-22T02:19:16.519Z,12.00
2019-05-22T02:21:49.471Z,12.00
2019-05-22T02:24:18.665Z,12.00
2019-05-22T02:26:47.943Z,12.00
2019-05-22T02:29:19.679Z,12.00
2019-05-22T02:31:52.977Z,12.00
2019-05-22T02:34:21.507Z,12.00
2019-05-22T02:36:50.200Z,12.00
2019-05-22T02:39:26.671Z,12.00
2019-05-22T02:42:00.111Z,12.00
2019-05-22T02:44:29.817Z,12.00
2019-05-22T02:47:16.767Z,12.00
2019-05-22T02:49:32.710Z,12.00
2019-05-22T02:52:02.921Z,12.00
2019-05-22T02:54:32.599Z,12.00
2019-05-22T02:57:02.191Z,12.10
2019-05-22T02:59:31.388Z,12.00
2019-05-22T03:02:01.950Z,12.00
2019-05-22T03:04:53.477Z,12.00
2019-05-22T03:07:24.641Z,12.00
2019-05-22T03:09:53.998Z,12.00
2019-05-22T03:12:24.402Z,12.00
2019-05-22T03:14:54.541Z,12.00
2019-05-22T03:17:31.045Z,12.00
2019-05-22T03:20:04.419Z,12.00
2019-05-22T03:22:40.427Z,12.00
2019-05-22T03:25:15.521Z,12.00
2019-05-22T03:27:50.229Z,12.00
2019-05-22T03:30:23.842Z,12.00
2019-05-22T03:32:54.747Z,12.00
2019-05-22T03:35:26.245Z,12.00
2019-05-22T03:37:56.976Z,12.00
2019-05-22T03:40:28.777Z,12.00
2019-05-22T03:42:58.036Z,12.00
2019-05-22T03:45:29.334Z,12.00
2019-05-22T03:47:59.622Z,12.00
2019-05-22T03:50:29.534Z,12.00
2019-05-22T03:53:01.246Z,12.00
2019-05-22T03:55:29.967Z,12.00
2019-05-22T03:57:59.464Z,12.00
2019-05-22T04:00:29.238Z,12.00
2019-05-22T04:07:58.396Z,12.00
2019-05-22T04:10:30.491Z,12.10
2019-05-22T04:20:30.228Z,12.10
2019-05-22T04:22:59.713Z,12.10
2019-05-22T04:25:29.077Z,12.10
2019-05-22T04:27:58.468Z,12.10
2019-05-22T04:30:27.538Z,12.10
2019-05-22T04:32:56.857Z,12.10
2019-05-22T04:35:26.645Z,12.10
2019-05-22T04:37:55.937Z,12.10
2019-05-22T04:40:31.343Z,12.10
2019-05-22T04:43:00.438Z,12.20
2019-05-22T04:45:30.266Z,12.20
2019-05-22T04:48:03.731Z,12.20
2019-05-22T04:50:33.928Z,12.20
2019-05-22T04:53:02.878Z,12.20
2019-05-22T04:55:33.014Z,12.20
2019-05-22T04:58:11.118Z,12.20
2019-05-22T05:00:40.022Z,12.20
2019-05-22T05:03:09.074Z,12.20
2019-05-22T05:05:45.989Z,12.20
2019-05-22T05:08:15.276Z,12.20
2019-05-22T05:10:47.122Z,12.20
2019-05-22T05:13:15.871Z,12.20
2019-05-22T05:15:45.004Z,12.30
2019-05-22T05:18:14.386Z,12.30
2019-05-22T05:20:44.463Z,12.30
2019-05-22T05:23:13.314Z,12.40
2019-05-22T05:25:43.603Z,12.30
2019-05-22T05:28:12.637Z,12.30
2019-05-22T05:30:41.503Z,12.40
2019-05-22T05:33:11.184Z,12.40
2019-05-22T05:35:40.276Z,12.40
2019-05-22T05:38:11.302Z,12.50
2019-05-22T05:40:44.402Z,12.50
2019-05-22T05:43:15.194Z,12.50
2019-05-22T05:45:46.660Z,12.50
2019-05-22T05:48:17.522Z,12.50
2019-05-22T05:51:08.531Z,12.50
2019-05-22T05:53:55.121Z,12.50
2019-05-22T05:56:26.912Z,12.50
2019-05-22T05:58:57.866Z,12.50
2019-05-22T06:01:28.336Z,12.60
2019-05-22T06:03:58.699Z,12.60
2019-05-22T06:06:33.667Z,12.70
2019-05-22T06:09:04.341Z,12.60
2019-05-22T06:11:42.994Z,12.60
2019-05-22T06:14:24.036Z,12.70
2019-05-22T06:17:04.878Z,12.70
2019-05-22T06:19:36.863Z,12.70
2019-05-22T06:22:05.730Z,12.80
2019-05-22T06:24:37.924Z,12.80
2019-05-22T06:27:16.331Z,12.80
2019-05-22T06:30:06.456Z,12.90
2019-05-22T06:33:09.039Z,12.90
2019-05-22T06:35:38.877Z,12.90
2019-05-22T06:50:50.271Z,12.90
2019-05-22T06:53:19.242Z,12.90
2019-05-22T06:55:48.529Z,12.80
2019-05-22T06:58:17.658Z,12.90
2019-05-22T07:00:46.559Z,12.90
2019-05-22T07:03:15.927Z,12.90
2019-05-22T07:05:44.785Z,13.00
2019-05-22T07:08:13.728Z,12.90
2019-05-22T07:10:43.395Z,13.00
2019-05-22T07:13:13.176Z,13.00
2019-05-22T07:15:42.134Z,13.10
2019-05-22T07:18:13.475Z,13.10
2019-05-22T07:20:42.842Z,13.10
2019-05-22T07:23:13.203Z,13.20
2019-05-22T07:25:44.487Z,13.20
2019-05-22T07:28:15.661Z,13.20
2019-05-22T07:30:45.145Z,13.30
2019-05-22T07:33:14.499Z,13.30
2019-05-22T07:36:04.593Z,13.30
2019-05-22T07:38:15.767Z,13.30
2019-05-22T07:40:44.815Z,13.40
2019-05-22T07:43:14.816Z,13.40
2019-05-22T07:45:44.187Z,13.40
2019-05-22T07:48:13.846Z,13.40
2019-05-22T07:50:48.535Z,13.40
2019-05-22T07:53:15.910Z,13.30
2019-05-22T07:55:45.500Z,13.40
2019-05-22T07:58:16.138Z,13.40
2019-05-22T08:00:54.777Z,13.40
2019-05-22T08:03:25.092Z,13.40
2019-05-22T08:05:56.165Z,13.60
2019-05-22T08:08:26.617Z,13.50
2019-05-22T08:10:56.411Z,13.50
2019-05-22T08:13:26.541Z,13.60
2019-05-22T08:15:55.556Z,13.70
2019-05-22T08:18:26.213Z,13.70
2019-05-22T08:20:54.932Z,13.70
2019-05-22T08:23:26.099Z,13.60
2019-05-22T08:25:56.273Z,13.60
2019-05-22T08:28:25.536Z,13.60
2019-05-22T08:30:54.844Z,13.50
2019-05-22T08:33:24.458Z,13.50
2019-05-22T08:35:54.095Z,13.50
2019-05-22T08:38:28.239Z,13.50
2019-05-22T08:40:59.926Z,13.40
2019-05-22T08:43:30.256Z,13.40
2019-05-22T08:46:00.257Z,13.40
2019-05-22T08:48:30.533Z,13.40
2019-05-22T08:51:00.167Z,13.50
2019-05-22T08:53:45.663Z,13.50
2019-05-22T08:56:00.782Z,13.60
2019-05-22T08:58:30.156Z,13.60
2019-05-22T09:00:59.254Z,13.60
2019-05-22T09:03:28.650Z,13.80
2019-05-22T09:05:57.481Z,13.80
2019-05-22T09:08:26.443Z,13.90
2019-05-22T09:10:55.227Z,13.90
2019-05-22T09:13:24.015Z,13.90
2019-05-22T09:15:53.680Z,13.90
2019-05-22T09:18:22.877Z,13.90
2019-05-22T09:20:52.137Z,13.90
2019-05-22T09:23:21.188Z,13.90
2019-05-22T09:25:50.514Z,13.90
2019-05-22T09:28:19.379Z,14.00
2019-05-22T09:30:48.293Z,14.00
2019-05-22T09:33:18.539Z,14.00
2019-05-22T09:35:47.795Z,14.10
2019-05-22T09:38:16.483Z,14.10
2019-05-22T09:40:45.591Z,14.00
2019-05-22T09:43:14.556Z,14.10
2019-05-22T09:45:43.299Z,14.20
2019-05-22T09:48:12.514Z,14.30
2019-05-22T09:50:41.895Z,14.40
2019-05-22T09:53:10.649Z,14.40
2019-05-22T09:55:40.011Z,14.40
2019-05-22T09:58:09.074Z,14.40
2019-05-22T10:00:38.447Z,14.50
2019-05-22T10:03:07.606Z,14.50
2019-05-22T10:05:36.647Z,14.50
2019-05-22T10:08:05.655Z,14.60
2019-05-22T10:10:34.646Z,14.70
2019-05-22T10:13:03.722Z,14.70
2019-05-22T10:15:33.161Z,14.70
2019-05-22T10:18:02.009Z,14.70
2019-05-22T10:20:31.176Z,14.70
2019-05-22T10:23:14.597Z,14.70
2019-05-22T10:25:31.954Z,14.70
2019-05-22T10:28:00.638Z,14.70
2019-05-22T10:30:29.910Z,14.70
2019-05-22T10:32:58.691Z,14.70
2019-05-22T10:35:29.221Z,14.70
2019-05-22T10:37:57.908Z,14.70
2019-05-22T10:40:27.091Z,14.70
2019-05-22T10:42:56.693Z,14.70
2019-05-22T10:45:27.198Z,14.70
2019-05-22T10:47:56.872Z,14.80
2019-05-22T10:50:26.591Z,14.90
2019-05-22T10:52:55.835Z,14.90
2019-05-22T10:55:25.209Z,15.00
2019-05-22T10:57:54.131Z,15.00
2019-05-22T11:00:24.975Z,15.00
2019-05-22T11:02:53.901Z,15.10
2019-05-22T11:05:23.266Z,15.20
2019-05-22T11:07:52.441Z,15.30
2019-05-22T11:10:24.456Z,15.30
2019-05-22T11:12:53.908Z,15.40
2019-05-22T11:15:23.663Z,15.50
2019-05-22T11:17:53.220Z,15.60
2019-05-22T11:20:23.675Z,15.60
2019-05-22T11:22:52.969Z,15.70
2019-05-22T11:25:22.776Z,15.70
2019-05-22T11:27:53.704Z,15.90
2019-05-22T11:30:24.285Z,15.90
2019-05-22T11:32:53.912Z,15.90
2019-05-22T11:35:23.848Z,15.90
2019-05-22T11:37:53.295Z,16.10
2019-05-22T11:40:22.818Z,16.20
2019-05-22T11:42:52.971Z,16.30
2019-05-22T11:45:22.241Z,16.40
2019-05-22T11:47:51.536Z,16.40
2019-05-22T11:50:21.877Z,16.40
2019-05-22T11:52:50.862Z,16.40
2019-05-22T11:55:20.365Z,16.50
2019-05-22T11:57:49.457Z,16.70
2019-05-22T12:00:20.136Z,16.90
2019-05-22T12:02:49.911Z,16.90
2019-05-22T12:05:19.859Z,17.20
2019-05-22T12:07:49.063Z,17.30
2019-05-22T12:10:22.783Z,17.50
2019-05-22T12:12:53.587Z,17.70
2019-05-22T12:15:26.467Z,17.90
2019-05-22T12:17:55.823Z,18.00
2019-05-22T12:20:26.088Z,18.10
2019-05-22T12:22:55.834Z,18.20
2019-05-22T12:25:25.717Z,18.10
2019-05-22T12:27:55.082Z,18.20
2019-05-22T12:30:24.578Z,18.40
2019-05-22T12:32:53.395Z,18.30
2019-05-22T12:35:22.061Z,18.30
2019-05-22T12:37:51.221Z,18.30
2019-05-22T12:40:20.885Z,18.50
2019-05-22T12:42:51.461Z,18.70
2019-05-22T12:45:25.864Z,18.70
2019-05-22T12:47:54.910Z,18.80
2019-05-22T12:50:27.312Z,18.80
2019-05-22T12:52:56.115Z,18.70
2019-05-22T12:55:24.995Z,18.60
2019-05-22T12:57:53.767Z,18.50
2019-05-22T13:00:25.947Z,18.50
2019-05-22T13:02:55.823Z,18.60
2019-05-22T13:05:24.927Z,18.50
2019-05-22T13:07:53.995Z,18.50
2019-05-22T13:10:24.174Z,18.60
2019-05-22T13:12:53.057Z,18.50
2019-05-22T13:15:23.244Z,18.50
2019-05-22T13:17:54.469Z,18.60
2019-05-22T13:20:40.991Z,18.60
2019-05-22T13:22:56.945Z,18.80
2019-05-22T13:25:33.067Z,19.00
2019-05-22T13:28:03.100Z,19.40
2019-05-22T13:30:34.885Z,19.30
2019-05-22T13:33:05.038Z,19.50
2019-05-22T13:35:35.042Z,19.40
2019-05-22T13:38:04.602Z,19.30
2019-05-22T13:40:34.657Z,19.10
2019-05-22T13:43:04.374Z,19.00
2019-05-22T13:45:33.618Z,19.00
2019-05-22T13:48:02.382Z,19.30
2019-05-22T13:50:31.351Z,19.30
2019-05-22T13:53:03.119Z,19.50
2019-05-22T13:55:32.971Z,19.50
2019-05-22T13:58:02.169Z,19.60
2019-05-22T14:00:31.155Z,19.70
2019-05-22T14:03:00.237Z,19.90
2019-05-22T14:05:29.642Z,19.80
2019-05-22T14:07:58.848Z,19.80
2019-05-22T14:10:30.391Z,20.20
2019-05-22T14:13:00.963Z,20.50
2019-05-22T14:15:48.310Z,20.80
2019-05-22T14:18:01.074Z,20.60
2019-05-22T14:20:30.511Z,20.60
2019-05-22T14:22:59.202Z,20.90
2019-05-22T14:25:28.342Z,21.20
2019-05-22T14:27:59.170Z,21.40
2019-05-22T14:30:30.052Z,21.40
2019-05-22T14:33:04.343Z,21.40
2019-05-22T14:35:46.983Z,21.50
2019-05-22T14:38:04.227Z,22.00
2019-05-22T14:40:33.842Z,22.40
2019-05-22T14:43:02.667Z,22.70
2019-05-22T14:45:31.452Z,23.20
2019-05-22T14:48:00.318Z,23.20
2019-05-22T14:50:32.967Z,23.40
2019-05-22T14:53:01.864Z,23.40
2019-05-22T14:55:35.788Z,23.80
2019-05-22T14:58:05.620Z,23.80
2019-05-22T15:00:36.358Z,23.60
2019-05-22T15:03:06.709Z,23.20
2019-05-22T15:05:35.929Z,22.50
2019-05-22T15:08:06.283Z,21.90
2019-05-22T15:10:36.438Z,21.70
2019-05-22T15:13:05.950Z,21.70
2019-05-22T15:15:35.276Z,21.80
2019-05-22T15:18:04.416Z,21.80
2019-05-22T15:20:37.715Z,21.70
2019-05-22T15:23:07.599Z,21.80
2019-05-22T15:25:36.826Z,21.70
2019-05-22T15:28:07.308Z,21.90
2019-05-22T15:30:36.399Z,22.20
2019-05-22T15:33:05.675Z,22.70
2019-05-22T15:35:35.415Z,22.80
2019-05-22T15:38:05.116Z,22.70
2019-05-22T15:40:34.703Z,22.60
2019-05-22T15:43:06.908Z,22.60
2019-05-22T15:45:36.647Z,22.40
2019-05-22T15:48:13.511Z,22.30
2019-05-22T15:50:44.825Z,21.90
2019-05-22T15:53:15.354Z,21.90
2019-05-22T15:55:47.819Z,21.80
2019-05-22T15:58:18.098Z,21.50
2019-05-22T16:00:47.745Z,21.20
2019-05-22T16:03:22.698Z,21.20
2019-05-22T16:05:53.580Z,21.10
2019-05-22T16:08:23.034Z,21.20
2019-05-22T16:10:52.830Z,21.00
2019-05-22T16:13:22.888Z,20.90
2019-05-22T16:15:54.560Z,20.70
2019-05-22T16:18:29.471Z,20.60
2019-05-22T16:21:02.059Z,20.50
2019-05-22T16:23:33.411Z,20.40
2019-05-22T16:26:04.541Z,20.30
2019-05-22T16:28:36.595Z,20.30
2019-05-22T16:31:08.260Z,20.20
2019-05-22T16:33:37.939Z,20.10
2019-05-22T16:36:06.916Z,20.10
2019-05-22T16:38:37.540Z,20.10
2019-05-22T16:41:07.106Z,20.10
2019-05-22T16:43:49.072Z,20.00
2019-05-22T16:46:14.144Z,19.80
2019-05-22T16:48:44.115Z,19.80
2019-05-22T16:51:15.386Z,19.60
2019-05-22T16:53:46.999Z,19.60
2019-05-22T16:56:17.273Z,19.60
2019-05-22T16:58:46.311Z,19.60
2019-05-22T17:01:17.775Z,19.60
2019-05-22T17:03:49.487Z,19.50
2019-05-22T17:06:19.051Z,19.60
2019-05-22T17:08:47.998Z,19.50
2019-05-22T17:11:17.435Z,19.40
2019-05-22T17:13:47.243Z,19.30
2019-05-22T17:16:16.851Z,19.30
2019-05-22T17:18:48.355Z,19.20
2019-05-22T17:21:17.671Z,19.30
2019-05-22T17:23:47.131Z,19.20
2019-05-22T17:26:16.324Z,19.20
2019-05-22T17:28:45.455Z,19.20
2019-05-22T17:31:15.484Z,19.20
2019-05-22T17:33:44.691Z,19.10
2019-05-22T17:36:15.076Z,19.10
2019-05-22T17:38:44.233Z,19.00
2019-05-22T17:41:13.798Z,19.00
2019-05-22T17:43:43.968Z,18.80
2019-05-22T17:46:15.125Z,18.70
2019-05-22T17:48:44.375Z,18.60
2019-05-22T17:51:14.251Z,18.50
2019-05-22T17:53:43.119Z,18.50
2019-05-22T17:56:12.521Z,18.40
2019-05-22T17:58:41.235Z,18.30
2019-05-22T18:01:10.079Z,18.20
2019-05-22T19:02:44.550Z,15.90
2019-05-22T19:05:14.197Z,15.80
2019-05-22T19:07:43.499Z,15.80
2019-05-22T19:10:13.751Z,15.70
2019-05-22T19:12:43.129Z,15.60
2019-05-22T19:15:17.261Z,15.50
2019-05-22T19:17:47.872Z,15.40
2019-05-22T19:20:17.572Z,15.30
2019-05-22T19:22:59.356Z,15.30
2019-05-22T19:25:19.564Z,15.30
2019-05-22T19:27:49.476Z,15.30
2019-05-22T19:30:22.170Z,15.30
2019-05-22T19:32:51.049Z,15.30
2019-05-22T19:35:21.086Z,15.20
2019-05-22T19:37:50.597Z,15.20
2019-05-22T19:40:19.859Z,15.10
2019-05-22T19:42:49.393Z,15.10
2019-05-22T19:45:18.935Z,15.00
2019-05-22T19:47:52.895Z,15.00
2019-05-22T19:50:24.020Z,14.90
2019-05-22T19:52:55.010Z,15.00
2019-05-22T19:55:26.012Z,14.90
2019-05-22T19:57:55.299Z,14.90
2019-05-22T20:00:24.691Z,14.90
2019-05-22T20:02:55.098Z,14.90
2019-05-22T20:05:25.527Z,14.80
2019-05-22T20:07:54.822Z,14.80
2019-05-22T20:10:25.363Z,14.70
2019-05-22T20:12:55.429Z,14.60
2019-05-22T20:15:24.106Z,14.50
2019-05-22T20:17:53.322Z,14.40
2019-05-22T20:20:23.313Z,14.40
2019-05-22T20:22:52.247Z,14.50
2019-05-22T20:25:22.163Z,14.40
2019-05-22T20:27:51.324Z,14.40
2019-05-22T20:30:21.866Z,14.30
2019-05-22T20:32:51.406Z,14.20
2019-05-22T20:35:20.352Z,14.20
2019-05-22T20:37:49.236Z,14.00
2019-05-22T20:40:20.378Z,14.00
2019-05-22T20:42:49.320Z,13.90
2019-05-22T20:45:21.101Z,14.00
2019-05-22T20:47:54.557Z,13.90
2019-05-22T20:50:25.314Z,13.90
2019-05-22T20:52:55.067Z,13.90
2019-05-22T20:55:24.184Z,13.80
2019-05-22T20:57:53.263Z,13.70
2019-05-22T21:00:23.220Z,13.70
2019-05-22T21:02:54.889Z,13.60
2019-05-22T21:05:25.423Z,13.50
2019-05-22T21:07:57.145Z,13.50
2019-05-22T21:10:27.141Z,13.50
2019-05-22T21:12:56.800Z,13.50
2019-05-22T21:15:27.712Z,13.50
2019-05-22T21:17:56.433Z,13.40
2019-05-22T21:20:27.308Z,13.40
2019-05-22T21:22:57.177Z,13.30
2019-05-22T21:25:26.201Z,13.30
2019-05-22T21:27:55.148Z,13.20
2019-05-22T21:30:26.802Z,13.10
2019-05-22T21:32:55.774Z,13.10
2019-05-22T21:35:24.643Z,13.00
2019-05-22T21:37:53.627Z,13.00
2019-05-22T21:40:24.507Z,13.00
2019-05-22T21:42:54.089Z,12.90
2019-05-22T21:45:24.195Z,12.90
2019-05-22T21:47:53.247Z,12.90
2019-05-22T21:50:22.598Z,12.70
2019-05-22T21:52:52.067Z,12.80
2019-05-22T21:55:21.976Z,12.70
2019-05-22T21:57:51.042Z,12.70
2019-05-22T22:00:42.782Z,12.70
2019-05-22T22:03:19.283Z,12.70
2019-05-22T22:05:48.274Z,12.70
2019-05-22T22:08:17.528Z,12.70
2019-05-22T22:10:46.779Z,12.70
2019-05-22T22:13:16.161Z,12.70
2019-05-22T22:15:46.128Z,12.60
2019-05-22T22:18:15.799Z,12.60
2019-05-22T22:20:45.606Z,12.60
2019-05-22T22:23:16.971Z,12.60
2019-05-22T22:25:46.333Z,12.60
2019-05-22T22:28:16.411Z,12.60
2019-05-22T22:30:53.567Z,12.60
2019-05-22T22:33:25.315Z,12.60
2019-05-22T22:35:55.059Z,12.60
2019-05-22T22:38:27.896Z,12.60
2019-05-22T22:40:57.518Z,12.60
2019-05-22T22:43:30.314Z,12.60
2019-05-22T22:46:05.687Z,12.60
2019-05-22T22:48:39.160Z,12.60
2019-05-22T22:51:12.233Z,12.60
2019-05-22T22:53:42.290Z,12.60
2019-05-22T22:56:11.948Z,12.60
2019-05-22T22:58:41.202Z,12.60
2019-05-22T23:01:13.557Z,12.60
2019-05-22T23:03:45.538Z,12.60
2019-05-22T23:06:15.245Z,12.50
2019-05-22T23:08:44.999Z,12.40
2019-05-22T23:11:15.611Z,12.30
2019-05-22T23:13:45.127Z,12.20
2019-05-22T23:16:15.085Z,12.10
2019-05-22T23:18:48.453Z,12.10
2019-05-22T23:21:17.583Z,12.00
2019-05-22T23:23:46.123Z,12.00
2019-05-22T23:26:16.344Z,11.90
2019-05-22T23:28:45.231Z,11.80
2019-05-22T23:31:14.797Z,11.70
2019-05-22T23:33:44.075Z,11.60
2019-05-22T23:36:13.529Z,11.60
2019-05-22T23:38:43.355Z,11.60
2019-05-22T23:41:13.846Z,11.70
2019-05-22T23:43:44.820Z,11.60
2019-05-22T23:46:15.031Z,11.60
2019-05-22T23:48:44.915Z,11.60
2019-05-22T23:51:14.291Z,11.60
2019-05-22T23:53:44.627Z,11.60
2019-05-22T23:56:14.492Z,11.50
2019-05-22T23:58:52.151Z,11.50
